Time;durP1;ratioP1;P1;durP2;ratioP2;P2;SDS_P1;SDS_P2;PMS_P1;PMS_P2;Temp;Humidity;BMP_temperature;BMP_pressure;BME280_temperature;BME280_humidity;BME280_pressure;Samples;Min_cycle;Max_cycle;Signal;HPM_P1;HPM_P2
2024/04/21 00:01:46;;;;;;;4.80;1.30;;;;;;;15.44;100.00;99308.58;106096;1254;71499;-54
2024/04/21 00:04:14;;;;;;;2.80;1.40;;;;;;;15.43;100.00;99304.20;105483;1260;61256;-52
2024/04/21 00:06:42;;;;;;;3.40;1.00;;;;;;;15.36;100.00;99304.98;105679;1253;61876;-52
2024/04/21 00:09:09;;;;;;;4.60;1.20;;;;;;;15.31;100.00;99297.24;105583;1259;73471;-53
2024/04/21 00:11:37;;;;;;;3.00;1.00;;;;;;;15.28;100.00;99287.33;105642;1260;66918;-53
2024/04/21 00:14:04;;;;;;;6.10;1.50;;;;;;;15.26;100.00;99286.92;105856;1260;70441;-54
2024/04/21 00:16:32;;;;;;;3.80;1.30;;;;;;;15.23;100.00;99276.90;105603;1260;61296;-54
2024/04/21 00:19:00;;;;;;;3.40;1.20;;;;;;;15.24;100.00;99277.64;105566;1254;61311;-52
2024/04/21 00:21:28;;;;;;;2.50;0.80;;;;;;;15.24;100.00;99266.20;105642;1257;74678;-53
2024/04/21 00:23:56;;;;;;;2.80;1.30;;;;;;;15.23;100.00;99268.50;105891;1259;66145;-56
2024/04/21 00:26:24;;;;;;;2.30;1.10;;;;;;;15.22;100.00;99267.27;105382;1261;75116;-52
2024/04/21 00:28:52;;;;;;;2.90;1.20;;;;;;;15.21;100.00;99261.31;105618;1267;61440;-52
2024/04/21 00:31:19;;;;;;;4.40;1.30;;;;;;;15.22;100.00;99266.38;105665;1254;61282;-53
2024/04/21 00:33:47;;;;;;;2.60;1.00;;;;;;;15.21;100.00;99254.48;105719;1254;75173;-54
2024/04/21 00:36:15;;;;;;;4.20;1.20;;;;;;;15.23;100.00;99252.52;105605;1261;67537;-53
2024/04/21 00:38:43;;;;;;;3.00;1.30;;;;;;;15.21;100.00;99253.75;105539;1259;71530;-52
2024/04/21 00:41:11;;;;;;;2.60;1.10;;;;;;;15.20;100.00;99251.66;105435;1254;61355;-53
2024/04/21 00:43:38;;;;;;;3.20;1.30;;;;;;;15.20;100.00;99243.02;105297;1255;61340;-54
2024/04/21 00:46:06;;;;;;;5.20;1.40;;;;;;;15.19;100.00;99236.24;105498;1254;73433;-52
2024/04/21 00:48:34;;;;;;;4.40;1.30;;;;;;;15.17;100.00;99225.76;105389;1260;66911;-53
2024/04/21 00:51:01;;;;;;;3.30;1.00;;;;;;;15.13;100.00;99217.56;105360;1260;71443;-53
2024/04/21 00:53:29;;;;;;;2.40;1.10;;;;;;;15.12;100.00;99213.20;105482;1261;61281;-53
2024/04/21 00:55:57;;;;;;;4.10;1.20;;;;;;;15.10;100.00;99210.95;105660;1259;61317;-53
2024/04/21 00:58:24;;;;;;;4.70;1.20;;;;;;;15.06;100.00;99208.16;105492;1260;75167;-52
2024/04/21 01:00:52;;;;;;;3.50;1.20;;;;;;;15.01;100.00;99207.42;105529;1260;66898;-54
2024/04/21 01:03:20;;;;;;;3.90;1.30;;;;;;;14.98;100.00;99210.54;105449;1259;72680;-53
2024/04/21 01:05:47;;;;;;;4.80;1.20;;;;;;;14.95;100.00;99212.79;105609;1260;61256;-57
2024/04/21 01:08:19;;;;;;;7.10;1.40;;;;;;;14.91;100.00;99215.14;105662;1260;61313;-53
2024/04/21 01:10:47;;;;;;;8.00;1.30;;;;;;;14.86;100.00;99210.18;105704;1254;74668;-53
2024/04/21 01:13:14;;;;;;;3.00;1.10;;;;;;;14.81;100.00;99206.02;105846;1254;65198;-52
2024/04/21 01:15:42;;;;;;;6.80;1.20;;;;;;;14.77;100.00;99207.09;105437;1259;72742;-56
2024/04/21 01:18:10;;;;;;;2.80;1.10;;;;;;;14.69;100.00;99208.47;105275;1258;61257;-52
2024/04/21 01:20:37;;;;;;;3.60;1.20;;;;;;;14.62;100.00;99204.34;105659;1269;61791;-52
2024/04/21 01:23:05;;;;;;;4.10;1.30;;;;;;;14.53;100.00;99198.27;105545;1259;74736;-53
2024/04/21 01:25:33;;;;;;;6.70;1.30;;;;;;;14.48;100.00;99191.27;106008;1260;65743;-59
2024/04/21 01:28:00;;;;;;;5.50;1.30;;;;;;;14.43;100.00;99186.65;105641;1263;72717;-53
2024/04/21 01:30:28;;;;;;;2.80;1.10;;;;;;;14.38;100.00;99189.94;105444;1257;61317;-53
2024/04/21 01:32:56;;;;;;;3.30;1.20;;;;;;;14.33;100.00;99198.44;105635;1260;61245;-54
2024/04/21 01:35:24;;;;;;;3.60;1.10;;;;;;;14.31;100.00;99192.41;106507;1254;73490;-54
2024/04/21 01:37:52;;;;;;;4.20;1.60;;;;;;;14.29;100.00;99178.02;105649;1259;65650;-52
2024/04/21 01:40:19;;;;;;;3.10;1.30;;;;;;;14.27;100.00;99183.86;105662;1254;72720;-52
2024/04/21 01:42:47;;;;;;;4.30;0.80;;;;;;;14.25;100.00;99184.64;105603;1254;61289;-54
2024/04/21 01:45:15;;;;;;;6.90;1.60;;;;;;;14.23;100.00;99181.77;105707;1255;61298;-53
2024/04/21 01:47:42;;;;;;;3.10;1.20;;;;;;;14.20;100.00;99184.70;105792;1254;74656;-53
2024/04/21 01:50:10;;;;;;;5.90;1.50;;;;;;;14.15;100.00;99177.54;105666;1259;66253;-52
2024/04/21 01:52:38;;;;;;;4.40;1.20;;;;;;;14.15;100.00;99167.31;105557;1254;72754;-54
2024/04/21 01:55:05;;;;;;;4.20;1.40;;;;;;;14.14;100.00;99162.21;105427;1259;61272;-52
2024/04/21 01:57:34;;;;;;;3.60;1.40;;;;;;;14.13;100.00;99156.55;105569;1254;60343;-52
2024/04/21 02:00:04;;;;;;;3.00;1.30;;;;;;;14.13;100.00;99158.33;105771;1255;74691;-59
2024/04/21 02:02:38;;;;;;;5.70;1.10;;;;;;;14.11;100.00;99155.29;105492;1261;66909;-54
2024/04/21 02:05:06;;;;;;;3.20;1.20;;;;;;;14.11;100.00;99163.27;105631;1260;71425;-53
2024/04/21 02:07:33;;;;;;;2.20;1.20;;;;;;;14.12;100.00;99162.28;105558;1261;61838;-52
2024/04/21 02:10:01;;;;;;;4.30;1.20;;;;;;;14.14;100.00;99155.61;105624;1255;61486;-53
2024/04/21 02:12:29;;;;;;;4.20;1.20;;;;;;;14.11;100.00;99160.77;105383;1260;74696;-52
2024/04/21 02:14:57;;;;;;;4.20;1.80;;;;;;;14.10;100.00;99158.58;105462;1254;66922;-52
2024/04/21 02:23:25;;;;;;;3.20;1.30;;;;;;;14.06;100.00;99154.14;102480;1291;600614;-54
2024/04/21 02:25:56;;;;;;;2.90;1.40;;;;;;;14.02;100.00;99147.89;104588;1271;60148;-53
2024/04/21 02:28:24;;;;;;;3.30;1.40;;;;;;;14.03;100.00;99144.88;104899;1270;59516;-53
2024/04/21 02:30:53;;;;;;;4.10;1.40;;;;;;;14.02;100.00;99140.88;104915;1271;73149;-53
2024/04/21 02:33:21;;;;;;;7.20;1.20;;;;;;;14.02;100.00;99129.77;104686;1271;65625;-53
2024/04/21 02:35:50;;;;;;;5.50;1.70;;;;;;;14.03;100.00;99118.20;104898;1266;71820;-53
2024/04/21 02:38:18;;;;;;;4.40;1.40;;;;;;;14.06;100.00;99128.83;104754;1264;60186;-52
2024/04/21 02:40:45;;;;;;;4.20;1.70;;;;;;;14.09;100.00;99124.12;105185;1270;59708;-52
2024/04/21 02:43:13;;;;;;;6.10;1.60;;;;;;;14.09;100.00;99114.76;104892;1266;73850;-52
2024/04/21 02:45:41;;;;;;;4.30;1.20;;;;;;;14.11;100.00;99126.58;104735;1264;65710;-53
2024/04/21 02:48:08;;;;;;;4.80;1.30;;;;;;;14.13;100.00;99130.45;104840;1266;72726;-53
2024/04/21 02:50:36;;;;;;;8.50;1.90;;;;;;;14.15;100.00;99119.15;104820;1268;60461;-53
2024/04/21 03:00:39;;;;;;;9.20;1.80;;;;;;;14.20;100.00;99134.02;102411;1292;601388;-59
2024/04/21 03:03:07;;;;;;;5.30;1.40;;;;;;;14.20;100.00;99125.30;105758;1258;60045;-54
2024/04/21 03:05:34;;;;;;;6.70;1.90;;;;;;;14.21;100.00;99129.44;105511;1254;60159;-53
2024/04/21 03:08:03;;;;;;;6.10;1.80;;;;;;;14.32;100.00;99136.70;105632;1259;71821;-53
2024/04/21 03:10:30;;;;;;;4.40;1.80;;;;;;;14.22;100.00;99138.46;105730;1258;67094;-53
2024/04/21 03:12:58;;;;;;;5.00;1.60;;;;;;;14.21;100.00;99131.98;105786;1258;72715;-58
2024/04/21 03:15:25;;;;;;;7.50;1.90;;;;;;;14.21;100.00;99136.34;105598;1266;208811;-53
2024/04/21 03:17:53;;;;;;;5.40;1.60;;;;;;;14.24;100.00;99134.67;105761;1256;59554;-53
2024/04/21 03:20:21;;;;;;;5.40;1.90;;;;;;;14.32;100.00;99129.44;105813;1258;71033;-52
2024/04/21 03:22:48;;;;;;;5.30;1.90;;;;;;;14.43;100.00;99133.17;105582;1259;65642;-55
2024/04/21 03:25:16;;;;;;;5.80;2.30;;;;;;;14.53;100.00;99128.25;105627;1257;72668;-53
2024/04/21 03:27:44;;;;;;;4.40;1.80;;;;;;;14.69;100.00;99115.34;105720;1258;60557;-53
2024/04/21 03:30:12;;;;;;;3.40;1.60;;;;;;;14.95;100.00;99116.54;105716;1256;60348;-53
2024/04/21 03:32:39;;;;;;;9.00;1.90;;;;;;;15.40;100.00;99103.06;105628;1253;73871;-54
2024/04/21 03:35:07;;;;;;;9.40;2.40;;;;;;;15.88;100.00;99087.02;105933;1256;66992;-56
2024/04/21 03:37:35;;;;;;;6.80;2.00;;;;;;;16.22;100.00;99091.84;105927;1258;70642;-57
2024/04/21 03:40:03;;;;;;;6.10;2.30;;;;;;;16.35;100.00;99093.34;105821;1251;59388;-52
2024/04/21 03:42:31;;;;;;;6.50;2.60;;;;;;;16.36;100.00;99098.77;105774;1251;60471;-52
2024/04/21 03:44:59;;;;;;;6.10;2.00;;;;;;;16.33;100.00;99099.20;105767;1254;73839;-58
2024/04/21 03:47:27;;;;;;;8.60;2.00;;;;;;;16.33;100.00;99111.67;105784;1256;67183;-53
2024/04/21 03:49:55;;;;;;;7.00;2.50;;;;;;;16.45;100.00;99136.67;105857;1257;72794;-53
2024/04/21 03:52:23;;;;;;;5.80;1.90;;;;;;;16.65;100.00;99136.58;105975;1251;60527;-58
2024/04/21 03:54:51;;;;;;;8.60;2.80;;;;;;;16.72;100.00;99136.23;106096;1256;60435;-55
2024/04/21 03:57:18;;;;;;;6.40;2.30;;;;;;;16.64;100.00;99125.11;105794;1258;74398;-54
2024/04/21 03:59:46;;;;;;;6.10;1.70;;;;;;;16.51;100.00;99114.42;105899;1256;66753;-53
2024/04/21 04:02:13;;;;;;;5.40;2.10;;;;;;;16.41;100.00;99130.52;105632;1258;73285;-52
2024/04/21 04:04:41;;;;;;;6.80;2.30;;;;;;;16.32;100.00;99160.64;105801;1256;60531;-53
2024/04/21 04:07:08;;;;;;;5.40;2.00;;;;;;;16.27;100.00;99164.94;105601;1251;60510;-53
2024/04/21 04:09:36;;;;;;;7.70;2.30;;;;;;;16.27;100.00;99166.36;105697;1256;72449;-53
2024/04/21 04:12:04;;;;;;;6.60;2.20;;;;;;;16.26;100.00;99167.20;105759;1252;66004;-52
2024/04/21 04:14:32;;;;;;;4.10;1.70;;;;;;;16.24;100.00;99161.02;105741;1257;72023;-55
2024/04/21 04:16:59;;;;;;;10.90;2.40;;;;;;;16.20;100.00;99163.51;105908;1255;60505;-53
2024/04/21 04:19:27;;;;;;;4.40;1.90;;;;;;;16.13;100.00;99158.16;105659;1254;60431;-52
2024/04/21 04:21:55;;;;;;;5.60;2.90;;;;;;;16.06;100.00;99156.98;105735;1254;73873;-54
2024/04/21 04:24:22;;;;;;;4.70;2.20;;;;;;;16.04;100.00;99149.02;105720;1254;65692;-52
2024/04/21 04:26:50;;;;;;;6.30;2.60;;;;;;;16.03;100.00;99149.45;105653;1266;70114;-53
2024/04/21 04:29:17;;;;;;;9.20;2.60;;;;;;;16.03;100.00;99150.49;105470;1266;60351;-52
2024/04/21 04:31:45;;;;;;;11.10;3.30;;;;;;;16.04;100.00;99154.02;105627;1257;60388;-53
2024/04/21 04:34:14;;;;;;;6.80;2.80;;;;;;;16.09;100.00;99157.91;105693;1252;72654;-53
2024/04/21 04:36:42;;;;;;;8.90;3.00;;;;;;;16.16;100.00;99165.61;105893;1257;67549;-58
2024/04/21 04:39:10;;;;;;;7.20;2.80;;;;;;;16.22;100.00;99169.42;105410;1258;72883;-52
2024/04/21 04:41:37;;;;;;;10.40;3.20;;;;;;;16.28;100.00;99166.95;105665;1258;60427;-53
2024/04/21 04:44:05;;;;;;;9.80;3.60;;;;;;;16.35;100.00;99161.61;105781;1254;60499;-55
2024/04/21 04:46:32;;;;;;;6.10;2.90;;;;;;;16.44;100.00;99162.95;105509;1257;74023;-55
2024/04/21 04:49:00;;;;;;;5.50;3.00;;;;;;;16.53;100.00;99163.58;105685;1254;66913;-53
2024/04/21 04:51:27;;;;;;;5.80;2.60;;;;;;;16.67;100.00;99158.34;105658;1254;71756;-56
2024/04/21 04:53:55;;;;;;;8.20;2.90;;;;;;;16.84;100.00;99150.35;105682;1254;61217;-55
2024/04/21 04:56:23;;;;;;;6.80;2.90;;;;;;;17.01;100.00;99145.75;105699;1254;60685;-54
2024/04/21 04:58:50;;;;;;;8.10;4.40;;;;;;;17.19;100.00;99156.48;106388;1257;72760;-59
2024/04/21 05:01:18;;;;;;;12.50;4.00;;;;;;;17.38;100.00;99144.21;105364;1256;66847;-52
2024/04/21 05:03:45;;;;;;;8.10;3.20;;;;;;;17.76;100.00;99123.55;105738;1256;72612;-53
2024/04/21 05:06:13;;;;;;;8.40;2.80;;;;;;;18.42;100.00;99120.52;105621;1257;60431;-55
2024/04/21 05:08:41;;;;;;;8.00;2.80;;;;;;;19.27;100.00;99121.05;105534;1254;60317;-55
2024/04/21 05:11:08;;;;;;;7.50;2.80;;;;;;;20.14;100.00;99113.15;105881;1255;72725;-60
2024/04/21 05:13:36;;;;;;;7.50;3.00;;;;;;;20.91;100.00;99098.15;105425;1257;65656;-57
2024/04/21 05:16:04;;;;;;;13.10;3.00;;;;;;;21.56;100.00;99097.67;105609;1254;73881;-55
2024/04/21 05:18:31;;;;;;;7.00;3.80;;;;;;;22.18;100.00;99093.73;105632;1251;60465;-57
2024/04/21 05:21:00;;;;;;;7.00;3.70;;;;;;;22.74;100.00;99094.36;105877;1254;60495;-57
2024/04/21 05:23:27;;;;;;;7.50;3.30;;;;;;;23.24;100.00;99095.46;105583;1255;74634;-55
2024/04/21 05:25:55;;;;;;;8.80;3.50;;;;;;;23.82;93.03;99097.85;105607;1267;66929;-57
2024/04/21 05:28:22;;;;;;;9.50;4.00;;;;;;;24.17;86.36;99090.64;105627;1256;73194;-55
2024/04/21 05:31:10;;;;;;;8.10;4.30;;;;;;;24.31;79.96;99084.00;105708;1257;60640;-55
2024/04/21 05:33:38;;;;;;;8.70;3.90;;;;;;;24.25;77.89;99083.55;105644;1254;60422;-56
2024/04/21 05:36:06;;;;;;;11.50;4.40;;;;;;;24.07;79.07;99089.91;105743;1256;73937;-54
2024/04/21 05:38:33;;;;;;;8.30;4.20;;;;;;;23.98;80.68;99084.24;105628;1256;67643;-55
2024/04/21 05:41:01;;;;;;;7.90;3.50;;;;;;;24.00;82.60;99079.02;109256;1251;75390;-59
2024/04/21 05:43:29;;;;;;;9.60;3.90;;;;;;;24.05;84.81;99070.52;109442;1251;60113;-54
2024/04/21 05:46:00;;;;;;;6.70;3.70;;;;;;;24.22;85.05;99063.47;109491;1251;58820;-54
2024/04/21 05:48:28;;;;;;;7.90;3.40;;;;;;;24.17;82.16;99066.16;109446;1251;74111;-54
2024/04/21 05:50:55;;;;;;;10.40;3.90;;;;;;;23.72;85.75;99086.23;109440;1251;66994;-59
2024/04/21 05:53:23;;;;;;;10.70;4.20;;;;;;;23.16;90.54;99135.81;109396;1251;72864;-54
2024/04/21 05:55:50;;;;;;;10.10;4.40;;;;;;;22.71;99.09;99142.98;109350;1253;58860;-54
2024/04/21 05:58:18;;;;;;;11.70;4.40;;;;;;;22.41;100.00;99129.77;109362;1253;60247;-55
2024/04/21 06:00:45;;;;;;;8.60;4.40;;;;;;;22.10;100.00;99133.49;109504;1253;73880;-61
2024/04/21 06:03:13;;;;;;;12.50;4.60;;;;;;;21.76;100.00;99138.75;109454;1251;65729;-57
2024/04/21 06:05:41;;;;;;;9.80;4.70;;;;;;;21.46;100.00;99145.17;109293;1254;71169;-54
2024/04/21 06:08:09;;;;;;;10.10;3.70;;;;;;;21.16;100.00;99149.13;109448;1253;62272;-54
2024/04/21 06:10:36;;;;;;;10.80;4.30;;;;;;;21.02;100.00;99148.13;109466;1251;59930;-55
2024/04/21 06:13:04;;;;;;;11.30;4.10;;;;;;;20.96;100.00;99153.33;109413;1251;73912;-55
2024/04/21 06:15:35;;;;;;;11.60;4.30;;;;;;;20.89;100.00;99128.75;109453;1251;65854;-58
2024/04/21 06:18:03;;;;;;;13.70;4.50;;;;;;;20.82;100.00;99127.33;109485;1251;71443;-55
2024/04/21 06:20:34;;;;;;;12.00;3.90;;;;;;;20.77;100.00;99108.61;109451;1251;60579;-54
2024/04/21 06:23:02;;;;;;;9.60;3.70;;;;;;;20.75;100.00;99134.73;109373;1251;60088;-54
2024/04/21 06:25:29;;;;;;;10.80;4.20;;;;;;;20.75;100.00;99163.39;109411;1254;74461;-56
2024/04/21 06:27:56;;;;;;;12.10;4.30;;;;;;;20.70;100.00;99149.98;109523;1251;67455;-60
2024/04/21 06:30:24;;;;;;;12.50;4.00;;;;;;;20.69;100.00;99154.61;109373;1253;72773;-57
2024/04/21 06:32:51;;;;;;;12.40;4.00;;;;;;;20.73;100.00;99153.73;109304;1253;58761;-61
2024/04/21 06:35:19;;;;;;;8.30;3.30;;;;;;;20.85;100.00;99139.69;109343;1253;60111;-54
2024/04/21 06:37:46;;;;;;;9.00;4.20;;;;;;;20.99;100.00;99167.61;109398;1253;73937;-56
2024/04/21 06:40:14;;;;;;;16.30;4.40;;;;;;;21.04;100.00;99177.15;109367;1253;67550;-54
2024/04/21 06:42:43;;;;;;;9.90;4.20;;;;;;;21.20;100.00;99181.31;109326;1253;72735;-63
2024/04/21 06:45:11;;;;;;;9.70;4.10;;;;;;;21.51;100.00;99182.45;109378;1252;60156;-58
2024/04/21 06:47:38;;;;;;;13.80;4.40;;;;;;;21.88;100.00;99179.28;109455;1251;60053;-55
2024/04/21 06:50:06;;;;;;;9.00;3.60;;;;;;;22.30;100.00;99181.29;109391;1251;72641;-55
2024/04/21 06:52:33;;;;;;;13.60;4.20;;;;;;;22.59;100.00;99196.92;109383;1251;67047;-60
2024/04/21 06:55:01;;;;;;;11.90;3.80;;;;;;;22.67;100.00;99205.20;109371;1253;71534;-55
2024/04/21 06:57:29;;;;;;;8.70;3.50;;;;;;;22.49;100.00;99187.88;109367;1252;58747;-54
2024/04/21 06:59:56;;;;;;;10.90;4.00;;;;;;;22.29;100.00;99190.96;109419;1251;58609;-56
2024/04/21 07:02:24;;;;;;;10.90;4.60;;;;;;;22.11;100.00;99188.05;109450;1253;73653;-54
2024/04/21 07:04:51;;;;;;;9.90;3.70;;;;;;;21.92;100.00;99183.91;109409;1253;68497;-56
2024/04/21 07:07:19;;;;;;;13.50;4.00;;;;;;;21.74;100.00;99200.95;109378;1253;71459;-54
2024/04/21 07:09:46;;;;;;;11.90;5.00;;;;;;;21.47;100.00;99197.95;109331;1251;59388;-56
2024/04/21 07:12:14;;;;;;;26.60;15.80;;;;;;;21.23;100.00;99200.10;109390;1253;60113;-54
2024/04/21 07:14:41;;;;;;;15.30;7.60;;;;;;;21.10;100.00;99199.89;109404;1253;74755;-56
2024/04/21 07:17:09;;;;;;;17.80;6.10;;;;;;;21.07;100.00;99202.94;109376;1253;70144;-56
2024/04/21 07:19:36;;;;;;;8.90;4.50;;;;;;;21.13;100.00;99200.52;109417;1251;71888;-55
2024/04/21 07:22:04;;;;;;;22.60;14.50;;;;;;;21.13;100.00;99202.19;109366;1253;60103;-55
2024/04/21 07:24:31;;;;;;;20.10;10.90;;;;;;;21.12;100.00;99203.84;109442;1251;60280;-56
2024/04/21 07:27:01;;;;;;;14.60;6.20;;;;;;;21.11;100.00;99207.36;109454;1251;75211;-54
2024/04/21 07:29:29;;;;;;;16.20;6.90;;;;;;;21.07;100.00;99218.05;109471;1251;67696;-55
2024/04/21 07:31:57;;;;;;;16.70;6.40;;;;;;;21.10;100.00;99218.11;109439;1252;75263;-54
2024/04/21 07:34:24;;;;;;;15.20;6.40;;;;;;;21.11;100.00;99218.06;109401;1256;62609;-57
2024/04/21 07:36:52;;;;;;;23.10;13.00;;;;;;;21.08;100.00;99230.21;109527;1252;58877;-53
2024/04/21 07:39:21;;;;;;;18.60;8.00;;;;;;;21.07;100.00;99225.89;109446;1251;77220;-54
2024/04/21 07:41:49;;;;;;;14.60;8.60;;;;;;;21.03;100.00;99225.02;109482;1251;68214;-54
2024/04/21 07:44:16;;;;;;;11.70;4.30;;;;;;;20.90;100.00;99220.92;109422;1252;72745;-54
2024/04/21 07:46:44;;;;;;;10.10;3.90;;;;;;;20.75;100.00;99234.32;109435;1253;61503;-54
2024/04/21 07:49:12;;;;;;;9.60;4.30;;;;;;;20.64;100.00;99241.33;109524;1251;62272;-54
2024/04/21 07:51:39;;;;;;;10.30;4.20;;;;;;;20.49;100.00;99242.40;109435;1252;76166;-55
2024/04/21 07:54:07;;;;;;;10.70;4.10;;;;;;;20.34;100.00;99253.69;109470;1251;69893;-54
2024/04/21 07:56:34;;;;;;;8.90;3.90;;;;;;;20.39;100.00;99252.81;109421;1251;74826;-54
2024/04/21 07:59:02;;;;;;;8.30;4.50;;;;;;;20.62;100.00;99252.98;109379;1253;62606;-54
2024/04/21 08:01:29;;;;;;;11.60;3.90;;;;;;;20.96;100.00;99258.13;109470;1251;59032;-55
2024/04/21 08:03:57;;;;;;;12.70;4.80;;;;;;;21.36;100.00;99254.72;109466;1251;77145;-54
2024/04/21 08:06:24;;;;;;;9.40;3.80;;;;;;;21.66;100.00;99249.67;109437;1251;67953;-59
2024/04/21 08:08:52;;;;;;;10.60;4.10;;;;;;;21.92;100.00;99244.63;109425;1251;73260;-55
2024/04/21 08:11:30;;;;;;;9.80;3.90;;;;;;;22.00;100.00;99240.13;109483;1251;61150;-55
2024/04/21 08:13:58;;;;;;;10.50;4.00;;;;;;;21.88;100.00;99239.05;109450;1251;63017;-54
2024/04/21 08:16:26;;;;;;;9.70;4.20;;;;;;;21.82;100.00;99242.40;109443;1251;77111;-54
2024/04/21 08:18:53;;;;;;;7.90;3.50;;;;;;;21.78;100.00;99244.46;109466;1251;68509;-55
2024/04/21 08:21:21;;;;;;;10.10;3.90;;;;;;;21.82;100.00;99243.88;109393;1252;73443;-54
2024/04/21 08:23:49;;;;;;;6.80;3.90;;;;;;;21.84;100.00;99257.23;109323;1253;62523;-54
2024/04/21 08:26:16;;;;;;;13.00;4.60;;;;;;;21.88;100.00;99258.73;109270;1253;61147;-55
2024/04/21 08:28:44;;;;;;;10.10;4.30;;;;;;;22.00;100.00;99256.30;109342;1253;77323;-55
2024/04/21 08:31:11;;;;;;;11.30;4.20;;;;;;;22.21;100.00;99257.45;109303;1253;68922;-55
2024/04/21 08:33:39;;;;;;;11.20;4.10;;;;;;;22.28;100.00;99261.86;109290;1253;74842;-54
2024/04/21 08:36:06;;;;;;;8.50;3.60;;;;;;;22.37;100.00;99266.48;109290;1253;61497;-56
2024/04/21 08:38:34;;;;;;;7.50;3.90;;;;;;;22.40;100.00;99264.36;109264;1253;62227;-55
2024/04/21 08:41:09;;;;;;;8.30;3.70;;;;;;;22.39;100.00;99266.88;109360;1252;75930;-54
2024/04/21 08:43:37;;;;;;;7.80;4.10;;;;;;;22.40;100.00;99272.13;109331;1251;69821;-55
2024/04/21 08:46:05;;;;;;;7.70;3.60;;;;;;;22.36;100.00;99272.91;109319;1252;75233;-54
2024/04/21 08:48:32;;;;;;;11.60;4.40;;;;;;;22.37;100.00;99276.08;109255;1253;61435;-54
2024/04/21 08:51:00;;;;;;;13.70;4.60;;;;;;;22.42;100.00;99274.70;109423;1251;60868;-54
2024/04/21 08:53:28;;;;;;;9.20;4.00;;;;;;;22.46;100.00;99273.90;109313;1251;77198;-54
2024/04/21 08:55:55;;;;;;;9.30;4.30;;;;;;;22.61;100.00;99281.84;109371;1253;67843;-54
2024/04/21 08:58:23;;;;;;;9.00;3.40;;;;;;;22.82;100.00;99285.27;109235;1253;74250;-58
2024/04/21 09:00:50;;;;;;;10.60;4.30;;;;;;;22.99;100.00;99290.05;109337;1253;61560;-55
2024/04/21 09:03:19;;;;;;;11.30;3.70;;;;;;;23.07;100.00;99297.80;109319;1253;62575;-54
2024/04/21 09:05:53;;;;;;;5.10;1.80;;;;;;;23.15;100.00;99292.73;109270;1253;77212;-54
2024/04/21 09:08:21;;;;;;;5.50;1.30;;;;;;;23.15;87.12;99284.71;109229;1253;69539;-60
2024/04/21 09:10:49;;;;;;;5.40;1.30;;;;;;;23.07;74.17;99287.60;109448;1252;74661;-55
2024/04/21 09:13:17;;;;;;;4.20;1.40;;;;;;;22.96;74.63;99295.03;109418;1252;62213;-54
2024/04/21 09:15:45;;;;;;;5.90;1.40;;;;;;;22.95;77.70;99294.95;109464;1252;60887;-54
2024/04/21 09:18:13;;;;;;;4.40;1.50;;;;;;;22.99;75.80;99296.59;109411;1252;77096;-55
2024/04/21 09:20:41;;;;;;;3.60;1.10;;;;;;;23.02;77.30;99297.88;109440;1252;69422;-54
2024/04/21 09:23:09;;;;;;;4.10;1.50;;;;;;;23.09;77.82;99303.21;109327;1253;75271;-54
2024/04/21 09:25:36;;;;;;;3.50;1.70;;;;;;;23.17;78.27;99303.09;109429;1253;62626;-55
2024/04/21 09:28:04;;;;;;;6.10;1.90;;;;;;;23.23;78.86;99301.22;109326;1253;61562;-54
2024/04/21 09:30:34;;;;;;;5.60;1.60;;;;;;;23.32;79.63;99299.28;109346;1251;77216;-55
2024/04/21 09:33:03;;;;;;;3.10;1.30;;;;;;;23.40;79.00;99298.09;109492;1251;67676;-54
2024/04/21 09:35:31;;;;;;;5.30;1.70;;;;;;;23.50;74.81;99301.16;109240;1251;75248;-55
2024/04/21 09:37:58;;;;;;;4.80;1.80;;;;;;;23.59;73.52;99303.79;109436;1252;62297;-54
2024/04/21 09:40:26;;;;;;;5.50;1.30;;;;;;;23.65;71.91;99308.53;109230;1253;62227;-54
2024/04/21 09:42:54;;;;;;;3.30;1.80;;;;;;;23.72;69.05;99316.15;109261;1252;77153;-54
2024/04/21 09:45:22;;;;;;;2.20;1.30;;;;;;;23.70;65.63;99322.35;109279;1251;69476;-54
2024/04/21 09:47:49;;;;;;;4.70;1.40;;;;;;;23.69;63.75;99319.55;109311;1251;74802;-54
2024/04/21 09:50:17;;;;;;;2.70;1.20;;;;;;;23.68;60.38;99327.16;109300;1251;62650;-54
2024/04/21 09:52:47;;;;;;;3.20;1.00;;;;;;;23.60;56.78;99326.00;109424;1252;62704;-53
2024/04/21 09:55:18;;;;;;;1.90;1.00;;;;;;;23.48;50.11;99326.30;109268;1251;77020;-53
2024/04/21 09:57:55;;;;;;;3.00;1.00;;;;;;;23.33;48.68;99326.02;109350;1251;67898;-54
2024/04/21 10:00:23;;;;;;;3.00;0.90;;;;;;;23.19;47.33;99327.45;109250;1252;74692;-54
2024/04/21 10:02:52;;;;;;;4.00;1.00;;;;;;;23.14;47.22;99334.59;109276;1253;62627;-54
2024/04/21 10:05:21;;;;;;;4.70;1.30;;;;;;;23.13;45.77;99337.42;109443;1251;62449;-54
2024/04/21 10:07:50;;;;;;;3.40;1.40;;;;;;;23.15;45.50;99333.25;109237;1251;77224;-53
2024/04/21 10:10:20;;;;;;;3.70;1.20;;;;;;;23.27;46.35;99329.89;109402;1252;67739;-58
2024/04/21 10:12:48;;;;;;;4.20;1.60;;;;;;;23.50;45.36;99328.17;109431;1251;75189;-53
2024/04/21 10:15:17;;;;;;;3.20;0.90;;;;;;;23.75;44.59;99325.23;109422;1251;61170;-54
2024/04/21 10:17:58;;;;;;;2.60;1.00;;;;;;;24.04;44.47;99327.92;109459;1251;62537;-53
2024/04/21 10:20:27;;;;;;;;;;;;;;;24.36;43.56;99332.66;109431;1251;75486;-54
2024/04/21 10:22:59;;;;;;;5.40;1.50;;;;;;;24.51;42.61;99337.10;109486;1251;68309;-54
2024/04/21 10:25:37;;;;;;;3.10;1.40;;;;;;;24.55;42.66;99337.58;109420;1252;73971;-54
2024/04/21 10:28:05;;;;;;;4.00;1.20;;;;;;;24.52;42.16;99343.38;109420;1251;62554;-60
2024/04/21 10:30:35;;;;;;;5.30;1.50;;;;;;;24.46;43.13;99337.30;109458;1251;60316;-53
2024/04/21 10:33:06;;;;;;;3.50;1.80;;;;;;;24.50;43.45;99330.33;109433;1251;76524;-54
2024/04/21 10:35:40;;;;;;;3.70;1.90;;;;;;;24.57;44.37;99332.04;109337;1251;69494;-55
2024/04/21 10:38:15;;;;;;;3.10;1.40;;;;;;;24.68;44.66;99344.98;109296;1251;73423;-60
2024/04/21 10:40:45;;;;;;;3.90;1.80;;;;;;;24.72;44.38;99346.43;109409;1252;60073;-54
2024/04/21 10:43:14;;;;;;;5.60;1.40;;;;;;;24.71;43.62;99358.66;109447;1252;61442;-54
2024/04/21 10:45:42;;;;;;;3.50;1.40;;;;;;;24.68;42.47;99365.77;109314;1251;76299;-54
2024/04/21 10:48:10;;;;;;;5.20;1.20;;;;;;;24.59;43.15;99359.66;109144;1253;69677;-54
2024/04/21 10:50:39;;;;;;;3.00;1.10;;;;;;;24.58;43.57;99361.96;109456;1251;75259;-53
2024/04/21 10:53:08;;;;;;;3.60;1.60;;;;;;;24.56;43.82;99360.19;109427;1252;62769;-54
2024/04/21 10:55:37;;;;;;;5.00;1.70;;;;;;;24.42;44.72;99353.27;109359;1251;61428;-54
2024/04/21 10:58:06;;;;;;;3.60;1.20;;;;;;;24.35;46.69;99342.45;109316;1251;77204;-60
2024/04/21 11:00:37;;;;;;;4.50;1.50;;;;;;;24.35;47.00;99338.52;109430;1252;68890;-55
2024/04/21 11:03:06;;;;;;;4.30;1.80;;;;;;;24.30;47.03;99331.59;109417;1251;74184;-54
2024/04/21 11:06:00;;;;;;;3.90;1.20;;;;;;;24.20;47.87;99332.84;109455;1252;61484;-54
2024/04/21 11:08:29;;;;;;;10.00;1.80;;;;;;;24.11;49.44;99341.32;109445;1251;61542;-54
2024/04/21 11:10:57;;;;;;;3.10;1.30;;;;;;;24.09;48.71;99346.95;109342;1251;77096;-54
2024/04/21 11:13:24;;;;;;;5.60;1.70;;;;;;;24.06;46.65;99345.95;109296;1251;69504;-54
2024/04/21 11:15:52;;;;;;;7.50;1.40;;;;;;;24.02;44.15;99342.70;109378;1252;75349;-58
2024/04/21 11:18:20;;;;;;;6.50;1.30;;;;;;;23.93;42.01;99344.15;109333;1252;61537;-54
2024/04/21 11:20:50;;;;;;;5.70;1.10;;;;;;;23.81;41.35;99346.17;109484;1251;61036;-54
2024/04/21 11:23:17;;;;;;;3.00;1.20;;;;;;;23.67;41.77;99339.90;109474;1251;76029;-52
2024/04/21 11:25:48;;;;;;;3.90;1.20;;;;;;;23.52;42.21;99329.77;109353;1251;68114;-55
2024/04/21 11:28:20;;;;;;;3.80;1.30;;;;;;;23.34;43.29;99329.50;109474;1251;75256;-54
2024/04/21 11:30:49;;;;;;;3.00;1.10;;;;;;;23.30;43.67;99336.23;109439;1251;61997;-54
2024/04/21 11:33:17;;;;;;;7.80;1.20;;;;;;;23.29;43.24;99344.63;109485;1252;62052;-53
2024/04/21 11:35:45;;;;;;;3.90;1.10;;;;;;;23.21;42.75;99344.81;109369;1252;76594;-54